sensor_id;sensor_type;location;lat;lon;timestamp;P1;durP1;ratioP1;P2;durP2;ratioP2
11334;SDS011;5722;42.620;23.374;2022-08-21T00:02:14;20.67;;;14.65;;
11334;SDS011;5722;42.620;23.374;2022-08-21T00:04:44;22.65;;;14.68;;
11334;SDS011;5722;42.620;23.374;2022-08-21T00:07:13;18.13;;;12.75;;
11334;SDS011;5722;42.620;23.374;2022-08-21T00:10:00;17.83;;;12.95;;
11334;SDS011;5722;42.620;23.374;2022-08-21T00:12:30;18.98;;;11.68;;
11334;SDS011;5722;42.620;23.374;2022-08-21T00:15:09;15.85;;;11.68;;
11334;SDS011;5722;42.620;23.374;2022-08-21T00:17:37;20.45;;;13.18;;
11334;SDS011;5722;42.620;23.374;2022-08-21T00:20:05;22.20;;;14.20;;
11334;SDS011;5722;42.620;23.374;2022-08-21T00:22:45;26.52;;;16.58;;
11334;SDS011;5722;42.620;23.374;2022-08-21T00:28:15;26.27;;;16.75;;
11334;SDS011;5722;42.620;23.374;2022-08-21T00:30:44;26.52;;;17.15;;
11334;SDS011;5722;42.620;23.374;2022-08-21T00:33:13;31.15;;;19.23;;
11334;SDS011;5722;42.620;23.374;2022-08-21T00:35:40;33.15;;;18.10;;
11334;SDS011;5722;42.620;23.374;2022-08-21T00:38:08;29.25;;;19.23;;
11334;SDS011;5722;42.620;23.374;2022-08-21T00:40:48;31.73;;;19.33;;
11334;SDS011;5722;42.620;23.374;2022-08-21T00:43:26;35.53;;;20.02;;
11334;SDS011;5722;42.620;23.374;2022-08-21T00:45:59;30.98;;;19.60;;
11334;SDS011;5722;42.620;23.374;2022-08-21T00:48:26;33.20;;;18.95;;
11334;SDS011;5722;42.620;23.374;2022-08-21T00:50:54;29.05;;;18.25;;
11334;SDS011;5722;42.620;23.374;2022-08-21T00:53:27;23.42;;;14.85;;
11334;SDS011;5722;42.620;23.374;2022-08-21T00:55:55;21.30;;;15.77;;
11334;SDS011;5722;42.620;23.374;2022-08-21T00:58:24;26.98;;;17.42;;
11334;SDS011;5722;42.620;23.374;2022-08-21T01:01:00;27.98;;;16.50;;
11334;SDS011;5722;42.620;23.374;2022-08-21T01:03:28;25.48;;;16.02;;
11334;SDS011;5722;42.620;23.374;2022-08-21T01:05:55;26.38;;;16.30;;
11334;SDS011;5722;42.620;23.374;2022-08-21T01:11:10;25.95;;;16.52;;
11334;SDS011;5722;42.620;23.374;2022-08-21T01:13:39;26.50;;;16.52;;
11334;SDS011;5722;42.620;23.374;2022-08-21T01:16:11;30.08;;;16.85;;
11334;SDS011;5722;42.620;23.374;2022-08-21T01:18:38;28.98;;;16.42;;
11334;SDS011;5722;42.620;23.374;2022-08-21T01:21:09;26.55;;;17.58;;
11334;SDS011;5722;42.620;23.374;2022-08-21T01:23:42;25.85;;;16.30;;
11334;SDS011;5722;42.620;23.374;2022-08-21T01:34:58;35.40;;;16.88;;
11334;SDS011;5722;42.620;23.374;2022-08-21T01:40:19;31.17;;;17.70;;
11334;SDS011;5722;42.620;23.374;2022-08-21T01:42:54;29.63;;;17.60;;
11334;SDS011;5722;42.620;23.374;2022-08-21T01:45:21;33.13;;;17.80;;
11334;SDS011;5722;42.620;23.374;2022-08-21T01:48:02;30.00;;;16.92;;
11334;SDS011;5722;42.620;23.374;2022-08-21T01:50:31;26.70;;;16.02;;
11334;SDS011;5722;42.620;23.374;2022-08-21T01:55:32;33.03;;;16.45;;
11334;SDS011;5722;42.620;23.374;2022-08-21T02:00:35;26.05;;;15.00;;
11334;SDS011;5722;42.620;23.374;2022-08-21T02:05:46;24.00;;;14.63;;
11334;SDS011;5722;42.620;23.374;2022-08-21T02:08:19;22.85;;;13.48;;
11334;SDS011;5722;42.620;23.374;2022-08-21T02:10:50;23.00;;;13.88;;
11334;SDS011;5722;42.620;23.374;2022-08-21T02:13:23;23.40;;;13.25;;
11334;SDS011;5722;42.620;23.374;2022-08-21T02:18:46;17.90;;;11.65;;
11334;SDS011;5722;42.620;23.374;2022-08-21T02:21:13;21.20;;;12.10;;
11334;SDS011;5722;42.620;23.374;2022-08-21T02:23:46;20.80;;;11.48;;
11334;SDS011;5722;42.620;23.374;2022-08-21T02:26:14;18.05;;;11.00;;
11334;SDS011;5722;42.620;23.374;2022-08-21T02:28:41;17.35;;;10.60;;
11334;SDS011;5722;42.620;23.374;2022-08-21T02:31:09;23.23;;;10.10;;
11334;SDS011;5722;42.620;23.374;2022-08-21T02:33:37;20.27;;;9.80;;
11334;SDS011;5722;42.620;23.374;2022-08-21T02:36:04;18.70;;;9.93;;
11334;SDS011;5722;42.620;23.374;2022-08-21T02:38:32;17.27;;;9.05;;
11334;SDS011;5722;42.620;23.374;2022-08-21T02:41:03;17.23;;;8.48;;
11334;SDS011;5722;42.620;23.374;2022-08-21T02:43:34;20.05;;;8.70;;
11334;SDS011;5722;42.620;23.374;2022-08-21T02:46:02;13.30;;;7.70;;
11334;SDS011;5722;42.620;23.374;2022-08-21T02:48:30;12.18;;;7.25;;
11334;SDS011;5722;42.620;23.374;2022-08-21T02:50:59;13.27;;;7.32;;
11334;SDS011;5722;42.620;23.374;2022-08-21T02:53:26;24.63;;;7.68;;
11334;SDS011;5722;42.620;23.374;2022-08-21T02:55:54;13.75;;;7.22;;
11334;SDS011;5722;42.620;23.374;2022-08-21T02:58:25;10.55;;;6.65;;
11334;SDS011;5722;42.620;23.374;2022-08-21T03:00:54;12.65;;;6.95;;
11334;SDS011;5722;42.620;23.374;2022-08-21T03:03:28;11.68;;;6.40;;
11334;SDS011;5722;42.620;23.374;2022-08-21T03:05:55;10.60;;;6.35;;
11334;SDS011;5722;42.620;23.374;2022-08-21T03:08:28;10.70;;;6.55;;
11334;SDS011;5722;42.620;23.374;2022-08-21T03:10:55;10.38;;;6.65;;
11334;SDS011;5722;42.620;23.374;2022-08-21T03:13:26;10.38;;;7.95;;
11334;SDS011;5722;42.620;23.374;2022-08-21T03:18:40;9.05;;;6.45;;
11334;SDS011;5722;42.620;23.374;2022-08-21T03:21:07;17.15;;;7.03;;
11334;SDS011;5722;42.620;23.374;2022-08-21T03:23:34;10.65;;;6.70;;
11334;SDS011;5722;42.620;23.374;2022-08-21T03:26:04;10.13;;;6.20;;
11334;SDS011;5722;42.620;23.374;2022-08-21T03:28:32;9.55;;;6.05;;
11334;SDS011;5722;42.620;23.374;2022-08-21T03:30:58;14.55;;;6.50;;
11334;SDS011;5722;42.620;23.374;2022-08-21T03:33:25;10.23;;;6.57;;
11334;SDS011;5722;42.620;23.374;2022-08-21T03:35:56;12.07;;;6.32;;
11334;SDS011;5722;42.620;23.374;2022-08-21T03:38:26;8.63;;;5.72;;
11334;SDS011;5722;42.620;23.374;2022-08-21T03:40:54;10.82;;;5.97;;
11334;SDS011;5722;42.620;23.374;2022-08-21T03:43:20;10.55;;;6.55;;
11334;SDS011;5722;42.620;23.374;2022-08-21T03:45:47;9.98;;;5.90;;
11334;SDS011;5722;42.620;23.374;2022-08-21T03:48:15;13.32;;;5.32;;
11334;SDS011;5722;42.620;23.374;2022-08-21T03:50:48;10.00;;;6.10;;
11334;SDS011;5722;42.620;23.374;2022-08-21T03:53:22;11.38;;;6.60;;
11334;SDS011;5722;42.620;23.374;2022-08-21T03:55:50;10.80;;;6.57;;
11334;SDS011;5722;42.620;23.374;2022-08-21T03:58:20;7.75;;;6.47;;
11334;SDS011;5722;42.620;23.374;2022-08-21T04:00:47;11.30;;;6.32;;
11334;SDS011;5722;42.620;23.374;2022-08-21T04:03:20;11.55;;;6.78;;
11334;SDS011;5722;42.620;23.374;2022-08-21T04:05:51;14.57;;;6.63;;
11334;SDS011;5722;42.620;23.374;2022-08-21T04:08:18;10.77;;;5.70;;
11334;SDS011;5722;42.620;23.374;2022-08-21T04:10:48;10.15;;;6.30;;
11334;SDS011;5722;42.620;23.374;2022-08-21T04:13:20;8.73;;;5.95;;
11334;SDS011;5722;42.620;23.374;2022-08-21T04:15:48;9.55;;;5.78;;
11334;SDS011;5722;42.620;23.374;2022-08-21T04:18:21;11.73;;;6.13;;
11334;SDS011;5722;42.620;23.374;2022-08-21T04:23:30;15.27;;;6.10;;
11334;SDS011;5722;42.620;23.374;2022-08-21T04:26:11;11.25;;;5.88;;
11334;SDS011;5722;42.620;23.374;2022-08-21T04:28:38;8.52;;;5.20;;
11334;SDS011;5722;42.620;23.374;2022-08-21T04:31:05;9.55;;;5.15;;
11334;SDS011;5722;42.620;23.374;2022-08-21T04:33:32;7.28;;;5.38;;
11334;SDS011;5722;42.620;23.374;2022-08-21T04:36:01;7.97;;;5.10;;
11334;SDS011;5722;42.620;23.374;2022-08-21T04:38:28;12.77;;;5.20;;
11334;SDS011;5722;42.620;23.374;2022-08-21T04:40:57;14.30;;;5.85;;
11334;SDS011;5722;42.620;23.374;2022-08-21T04:43:42;12.55;;;5.38;;
11334;SDS011;5722;42.620;23.374;2022-08-21T04:46:12;10.70;;;6.00;;
11334;SDS011;5722;42.620;23.374;2022-08-21T04:48:39;8.35;;;5.22;;
11334;SDS011;5722;42.620;23.374;2022-08-21T04:51:07;13.45;;;5.82;;
11334;SDS011;5722;42.620;23.374;2022-08-21T04:56:22;10.63;;;5.10;;
11334;SDS011;5722;42.620;23.374;2022-08-21T05:02:08;9.32;;;5.28;;
11334;SDS011;5722;42.620;23.374;2022-08-21T05:04:36;9.93;;;5.05;;
11334;SDS011;5722;42.620;23.374;2022-08-21T05:07:09;10.35;;;5.47;;
11334;SDS011;5722;42.620;23.374;2022-08-21T05:09:48;6.32;;;4.72;;
11334;SDS011;5722;42.620;23.374;2022-08-21T05:12:20;10.18;;;4.82;;
11334;SDS011;5722;42.620;23.374;2022-08-21T05:14:52;9.68;;;5.40;;
11334;SDS011;5722;42.620;23.374;2022-08-21T05:17:21;8.57;;;4.63;;
11334;SDS011;5722;42.620;23.374;2022-08-21T05:19:53;10.90;;;4.95;;
11334;SDS011;5722;42.620;23.374;2022-08-21T05:22:20;9.90;;;5.00;;
11334;SDS011;5722;42.620;23.374;2022-08-21T05:24:49;6.32;;;4.72;;
11334;SDS011;5722;42.620;23.374;2022-08-21T05:27:16;7.45;;;5.25;;
11334;SDS011;5722;42.620;23.374;2022-08-21T05:29:44;7.20;;;5.35;;
11334;SDS011;5722;42.620;23.374;2022-08-21T05:32:17;13.10;;;6.07;;
11334;SDS011;5722;42.620;23.374;2022-08-21T05:34:46;8.55;;;5.78;;
11334;SDS011;5722;42.620;23.374;2022-08-21T05:37:13;10.95;;;5.85;;
11334;SDS011;5722;42.620;23.374;2022-08-21T05:39:40;13.82;;;7.45;;
11334;SDS011;5722;42.620;23.374;2022-08-21T05:42:07;9.98;;;6.15;;
11334;SDS011;5722;42.620;23.374;2022-08-21T05:44:34;10.68;;;5.40;;
11334;SDS011;5722;42.620;23.374;2022-08-21T05:47:03;8.18;;;4.25;;
11334;SDS011;5722;42.620;23.374;2022-08-21T05:49:42;10.77;;;4.10;;
11334;SDS011;5722;42.620;23.374;2022-08-21T05:52:17;6.25;;;4.35;;
11334;SDS011;5722;42.620;23.374;2022-08-21T05:54:59;13.60;;;4.55;;
11334;SDS011;5722;42.620;23.374;2022-08-21T05:57:33;11.20;;;4.40;;
11334;SDS011;5722;42.620;23.374;2022-08-21T06:00:17;7.63;;;3.90;;
11334;SDS011;5722;42.620;23.374;2022-08-21T06:02:49;7.15;;;4.05;;
11334;SDS011;5722;42.620;23.374;2022-08-21T06:05:25;8.88;;;3.85;;
11334;SDS011;5722;42.620;23.374;2022-08-21T06:07:56;8.90;;;3.92;;
11334;SDS011;5722;42.620;23.374;2022-08-21T06:10:26;6.97;;;4.10;;
11334;SDS011;5722;42.620;23.374;2022-08-21T06:12:55;5.97;;;4.10;;
11334;SDS011;5722;42.620;23.374;2022-08-21T06:15:45;6.32;;;3.97;;
11334;SDS011;5722;42.620;23.374;2022-08-21T06:18:26;6.28;;;4.43;;
11334;SDS011;5722;42.620;23.374;2022-08-21T06:21:24;5.07;;;4.45;;
11334;SDS011;5722;42.620;23.374;2022-08-21T06:36:45;6.80;;;3.95;;
11334;SDS011;5722;42.620;23.374;2022-08-21T06:39:12;9.18;;;4.90;;
11334;SDS011;5722;42.620;23.374;2022-08-21T06:41:43;7.65;;;5.03;;
11334;SDS011;5722;42.620;23.374;2022-08-21T06:44:11;8.70;;;4.97;;
11334;SDS011;5722;42.620;23.374;2022-08-21T06:46:47;9.90;;;4.72;;
11334;SDS011;5722;42.620;23.374;2022-08-21T06:49:24;9.82;;;4.70;;
11334;SDS011;5722;42.620;23.374;2022-08-21T07:09:23;8.85;;;5.70;;
11334;SDS011;5722;42.620;23.374;2022-08-21T07:11:59;10.50;;;5.20;;
11334;SDS011;5722;42.620;23.374;2022-08-21T07:14:40;10.23;;;5.78;;
11334;SDS011;5722;42.620;23.374;2022-08-21T07:17:12;9.90;;;5.60;;
11334;SDS011;5722;42.620;23.374;2022-08-21T10:13:16;9.18;;;4.40;;
11334;SDS011;5722;42.620;23.374;2022-08-21T10:16:18;10.57;;;4.40;;
11334;SDS011;5722;42.620;23.374;2022-08-21T10:19:39;6.93;;;4.30;;
11334;SDS011;5722;42.620;23.374;2022-08-21T10:22:28;8.27;;;4.25;;
11334;SDS011;5722;42.620;23.374;2022-08-21T10:25:21;7.28;;;4.55;;
11334;SDS011;5722;42.620;23.374;2022-08-21T10:31:23;8.48;;;4.53;;
11334;SDS011;5722;42.620;23.374;2022-08-21T10:33:55;6.72;;;5.10;;
11334;SDS011;5722;42.620;23.374;2022-08-21T10:36:47;7.72;;;4.45;;
11334;SDS011;5722;42.620;23.374;2022-08-21T10:39:44;11.50;;;4.32;;
11334;SDS011;5722;42.620;23.374;2022-08-21T10:42:33;12.25;;;4.22;;
11334;SDS011;5722;42.620;23.374;2022-08-21T10:45:29;5.70;;;4.10;;
11334;SDS011;5722;42.620;23.374;2022-08-21T10:51:15;10.70;;;4.97;;
11334;SDS011;5722;42.620;23.374;2022-08-21T10:54:04;7.80;;;4.50;;
11334;SDS011;5722;42.620;23.374;2022-08-21T10:56:42;6.97;;;5.03;;
11334;SDS011;5722;42.620;23.374;2022-08-21T10:59:28;8.65;;;4.30;;
11334;SDS011;5722;42.620;23.374;2022-08-21T11:02:13;9.88;;;4.07;;
11334;SDS011;5722;42.620;23.374;2022-08-21T11:05:09;6.18;;;3.80;;
11334;SDS011;5722;42.620;23.374;2022-08-21T11:07:58;7.60;;;4.20;;
11334;SDS011;5722;42.620;23.374;2022-08-21T11:10:37;11.40;;;4.00;;
11334;SDS011;5722;42.620;23.374;2022-08-21T11:13:11;7.05;;;4.30;;
11334;SDS011;5722;42.620;23.374;2022-08-21T11:16:00;9.00;;;4.05;;
11334;SDS011;5722;42.620;23.374;2022-08-21T11:18:45;6.90;;;4.07;;
11334;SDS011;5722;42.620;23.374;2022-08-21T11:21:41;8.07;;;3.78;;
11334;SDS011;5722;42.620;23.374;2022-08-21T11:24:27;8.80;;;4.45;;
11334;SDS011;5722;42.620;23.374;2022-08-21T11:27:07;8.80;;;4.07;;
11334;SDS011;5722;42.620;23.374;2022-08-21T11:32:39;7.32;;;4.00;;
11334;SDS011;5722;42.620;23.374;2022-08-21T11:35:22;6.40;;;3.92;;
11334;SDS011;5722;42.620;23.374;2022-08-21T11:38:20;7.00;;;3.92;;
11334;SDS011;5722;42.620;23.374;2022-08-21T11:41:01;5.28;;;3.72;;
11334;SDS011;5722;42.620;23.374;2022-08-21T11:43:39;6.85;;;3.97;;
11334;SDS011;5722;42.620;23.374;2022-08-21T11:46:28;6.13;;;3.80;;
11334;SDS011;5722;42.620;23.374;2022-08-21T11:51:48;9.32;;;4.18;;
11334;SDS011;5722;42.620;23.374;2022-08-21T11:54:21;6.05;;;4.20;;
11334;SDS011;5722;42.620;23.374;2022-08-21T11:56:58;5.57;;;3.80;;
11334;SDS011;5722;42.620;23.374;2022-08-21T11:59:42;8.02;;;4.57;;
11334;SDS011;5722;42.620;23.374;2022-08-21T12:02:18;6.68;;;4.03;;
11334;SDS011;5722;42.620;23.374;2022-08-21T12:04:59;8.15;;;3.83;;
11334;SDS011;5722;42.620;23.374;2022-08-21T12:07:31;9.85;;;4.05;;
11334;SDS011;5722;42.620;23.374;2022-08-21T12:10:04;5.18;;;3.85;;
11334;SDS011;5722;42.620;23.374;2022-08-21T12:12:42;5.60;;;4.18;;
11334;SDS011;5722;42.620;23.374;2022-08-21T12:15:17;9.00;;;3.88;;
11334;SDS011;5722;42.620;23.374;2022-08-21T12:21:01;8.30;;;4.25;;
11334;SDS011;5722;42.620;23.374;2022-08-21T12:23:43;8.70;;;3.92;;
11334;SDS011;5722;42.620;23.374;2022-08-21T12:26:24;5.90;;;4.10;;
11334;SDS011;5722;42.620;23.374;2022-08-21T12:32:20;8.50;;;4.72;;
11334;SDS011;5722;42.620;23.374;2022-08-21T12:34:52;6.82;;;4.05;;
11334;SDS011;5722;42.620;23.374;2022-08-21T12:37:31;9.43;;;4.85;;
11334;SDS011;5722;42.620;23.374;2022-08-21T12:40:10;7.93;;;4.25;;
11334;SDS011;5722;42.620;23.374;2022-08-21T12:42:42;8.73;;;4.25;;
11334;SDS011;5722;42.620;23.374;2022-08-21T12:45:17;7.80;;;4.57;;
11334;SDS011;5722;42.620;23.374;2022-08-21T12:47:53;8.40;;;4.63;;
11334;SDS011;5722;42.620;23.374;2022-08-21T12:50:38;6.45;;;4.07;;
11334;SDS011;5722;42.620;23.374;2022-08-21T12:53:15;9.80;;;4.45;;
11334;SDS011;5722;42.620;23.374;2022-08-21T12:55:52;6.15;;;4.05;;
11334;SDS011;5722;42.620;23.374;2022-08-21T12:58:25;6.97;;;4.25;;
11334;SDS011;5722;42.620;23.374;2022-08-21T13:00:54;8.88;;;5.00;;
11334;SDS011;5722;42.620;23.374;2022-08-21T13:06:17;5.95;;;4.80;;
11334;SDS011;5722;42.620;23.374;2022-08-21T13:08:53;6.10;;;4.68;;
11334;SDS011;5722;42.620;23.374;2022-08-21T13:11:24;6.43;;;4.65;;
11334;SDS011;5722;42.620;23.374;2022-08-21T13:14:09;8.70;;;4.80;;
11334;SDS011;5722;42.620;23.374;2022-08-21T13:19:34;7.40;;;4.85;;
11334;SDS011;5722;42.620;23.374;2022-08-21T13:27:37;10.85;;;4.97;;
11334;SDS011;5722;42.620;23.374;2022-08-21T13:30:09;8.48;;;5.28;;
11334;SDS011;5722;42.620;23.374;2022-08-21T13:32:41;7.68;;;4.63;;
11334;SDS011;5722;42.620;23.374;2022-08-21T13:35:10;9.48;;;4.63;;
11334;SDS011;5722;42.620;23.374;2022-08-21T13:37:42;7.53;;;4.90;;
11334;SDS011;5722;42.620;23.374;2022-08-21T13:43:00;8.75;;;5.20;;
11334;SDS011;5722;42.620;23.374;2022-08-21T13:45:38;5.97;;;4.90;;
11334;SDS011;5722;42.620;23.374;2022-08-21T13:48:10;8.05;;;5.65;;
11334;SDS011;5722;42.620;23.374;2022-08-21T13:50:39;8.73;;;5.00;;
11334;SDS011;5722;42.620;23.374;2022-08-21T13:53:19;8.00;;;5.00;;
11334;SDS011;5722;42.620;23.374;2022-08-21T13:55:52;7.97;;;5.47;;
11334;SDS011;5722;42.620;23.374;2022-08-21T13:58:26;11.07;;;5.35;;
11334;SDS011;5722;42.620;23.374;2022-08-21T14:01:00;9.23;;;4.85;;
11334;SDS011;5722;42.620;23.374;2022-08-21T14:03:33;8.02;;;5.05;;
11334;SDS011;5722;42.620;23.374;2022-08-21T14:06:10;7.68;;;5.03;;
11334;SDS011;5722;42.620;23.374;2022-08-21T14:08:50;6.80;;;4.57;;
11334;SDS011;5722;42.620;23.374;2022-08-21T14:11:22;5.95;;;5.15;;
11334;SDS011;5722;42.620;23.374;2022-08-21T14:13:59;8.43;;;4.88;;
11334;SDS011;5722;42.620;23.374;2022-08-21T14:16:46;10.60;;;5.63;;
11334;SDS011;5722;42.620;23.374;2022-08-21T14:19:39;7.13;;;5.35;;
11334;SDS011;5722;42.620;23.374;2022-08-21T14:22:27;8.18;;;5.18;;
11334;SDS011;5722;42.620;23.374;2022-08-21T14:25:15;11.10;;;5.22;;
11334;SDS011;5722;42.620;23.374;2022-08-21T14:27:54;10.32;;;5.18;;
11334;SDS011;5722;42.620;23.374;2022-08-21T14:33:20;8.55;;;4.93;;
11334;SDS011;5722;42.620;23.374;2022-08-21T14:35:54;8.35;;;4.72;;
11334;SDS011;5722;42.620;23.374;2022-08-21T14:38:24;6.00;;;4.57;;
11334;SDS011;5722;42.620;23.374;2022-08-21T14:41:03;8.32;;;4.47;;
11334;SDS011;5722;42.620;23.374;2022-08-21T14:43:35;6.25;;;4.57;;
11334;SDS011;5722;42.620;23.374;2022-08-21T14:46:17;9.75;;;4.63;;
11334;SDS011;5722;42.620;23.374;2022-08-21T14:54:36;7.30;;;4.30;;
11334;SDS011;5722;42.620;23.374;2022-08-21T14:57:08;9.13;;;4.63;;
11334;SDS011;5722;42.620;23.374;2022-08-21T14:59:42;5.22;;;4.70;;
11334;SDS011;5722;42.620;23.374;2022-08-21T15:02:12;7.78;;;4.60;;
11334;SDS011;5722;42.620;23.374;2022-08-21T15:04:39;5.78;;;4.78;;
11334;SDS011;5722;42.620;23.374;2022-08-21T15:07:20;6.20;;;4.85;;
11334;SDS011;5722;42.620;23.374;2022-08-21T15:12:52;8.25;;;4.93;;
11334;SDS011;5722;42.620;23.374;2022-08-21T15:15:22;7.93;;;4.65;;
11334;SDS011;5722;42.620;23.374;2022-08-21T15:18:01;7.10;;;5.05;;
11334;SDS011;5722;42.620;23.374;2022-08-21T15:20:38;10.18;;;5.05;;
11334;SDS011;5722;42.620;23.374;2022-08-21T15:23:08;16.83;;;9.75;;
11334;SDS011;5722;42.620;23.374;2022-08-21T15:31:27;27.77;;;16.55;;
11334;SDS011;5722;42.620;23.374;2022-08-21T15:37:00;19.42;;;10.23;;
11334;SDS011;5722;42.620;23.374;2022-08-21T15:39:38;13.15;;;9.85;;
11334;SDS011;5722;42.620;23.374;2022-08-21T15:42:34;13.52;;;7.53;;
11334;SDS011;5722;42.620;23.374;2022-08-21T15:45:25;11.82;;;8.32;;
11334;SDS011;5722;42.620;23.374;2022-08-21T19:01:45;10.90;;;8.15;;
11334;SDS011;5722;42.620;23.374;2022-08-21T19:04:22;12.23;;;8.05;;
11334;SDS011;5722;42.620;23.374;2022-08-21T19:06:53;14.18;;;7.90;;
11334;SDS011;5722;42.620;23.374;2022-08-21T19:09:39;13.20;;;8.52;;
11334;SDS011;5722;42.620;23.374;2022-08-21T19:15:12;13.63;;;8.48;;
11334;SDS011;5722;42.620;23.374;2022-08-21T19:17:48;10.75;;;8.98;;
11334;SDS011;5722;42.620;23.374;2022-08-21T19:20:22;11.27;;;8.70;;
11334;SDS011;5722;42.620;23.374;2022-08-21T19:23:06;14.35;;;8.85;;
11334;SDS011;5722;42.620;23.374;2022-08-21T19:26:08;11.05;;;8.82;;
11334;SDS011;5722;42.620;23.374;2022-08-21T19:28:52;10.80;;;8.07;;
11334;SDS011;5722;42.620;23.374;2022-08-21T19:32:12;10.77;;;8.30;;
11334;SDS011;5722;42.620;23.374;2022-08-21T20:06:54;10.27;;;6.93;;
11334;SDS011;5722;42.620;23.374;2022-08-21T20:09:29;8.95;;;6.57;;
11334;SDS011;5722;42.620;23.374;2022-08-21T20:12:14;8.07;;;6.35;;
11334;SDS011;5722;42.620;23.374;2022-08-21T20:14:45;8.73;;;6.63;;
11334;SDS011;5722;42.620;23.374;2022-08-21T20:17:18;9.40;;;6.65;;
11334;SDS011;5722;42.620;23.374;2022-08-21T20:19:51;10.05;;;7.30;;
11334;SDS011;5722;42.620;23.374;2022-08-21T20:25:13;9.70;;;7.45;;
11334;SDS011;5722;42.620;23.374;2022-08-21T20:27:49;10.05;;;7.22;;
11334;SDS011;5722;42.620;23.374;2022-08-21T20:30:26;11.20;;;7.63;;
11334;SDS011;5722;42.620;23.374;2022-08-21T20:32:55;7.70;;;6.78;;
11334;SDS011;5722;42.620;23.374;2022-08-21T20:35:28;10.70;;;7.32;;
11334;SDS011;5722;42.620;23.374;2022-08-21T20:38:06;9.40;;;7.07;;
11334;SDS011;5722;42.620;23.374;2022-08-21T20:40:53;12.07;;;7.15;;
11334;SDS011;5722;42.620;23.374;2022-08-21T20:43:29;10.75;;;7.65;;
11334;SDS011;5722;42.620;23.374;2022-08-21T20:45:59;10.45;;;7.53;;
11334;SDS011;5722;42.620;23.374;2022-08-21T20:48:40;7.65;;;6.85;;
11334;SDS011;5722;42.620;23.374;2022-08-21T20:51:15;8.20;;;7.35;;
11334;SDS011;5722;42.620;23.374;2022-08-21T20:53:51;8.63;;;7.32;;
11334;SDS011;5722;42.620;23.374;2022-08-21T20:56:34;8.15;;;7.35;;
11334;SDS011;5722;42.620;23.374;2022-08-21T20:59:08;9.23;;;7.60;;
11334;SDS011;5722;42.620;23.374;2022-08-21T21:01:42;8.18;;;7.30;;
11334;SDS011;5722;42.620;23.374;2022-08-21T21:04:14;8.35;;;7.40;;
11334;SDS011;5722;42.620;23.374;2022-08-21T21:06:54;11.50;;;8.35;;
11334;SDS011;5722;42.620;23.374;2022-08-21T21:09:35;9.38;;;7.97;;
11334;SDS011;5722;42.620;23.374;2022-08-21T21:12:11;11.68;;;8.05;;
11334;SDS011;5722;42.620;23.374;2022-08-21T21:14:43;9.02;;;7.30;;
11334;SDS011;5722;42.620;23.374;2022-08-21T21:17:16;9.40;;;7.60;;
11334;SDS011;5722;42.620;23.374;2022-08-21T21:19:50;8.30;;;7.35;;
11334;SDS011;5722;42.620;23.374;2022-08-21T21:22:23;12.63;;;8.13;;
11334;SDS011;5722;42.620;23.374;2022-08-21T21:24:59;11.88;;;8.07;;
11334;SDS011;5722;42.620;23.374;2022-08-21T21:30:29;11.05;;;7.85;;
11334;SDS011;5722;42.620;23.374;2022-08-21T21:33:01;10.32;;;8.20;;
11334;SDS011;5722;42.620;23.374;2022-08-21T21:35:30;9.70;;;8.45;;
11334;SDS011;5722;42.620;23.374;2022-08-21T21:38:06;10.98;;;8.43;;
11334;SDS011;5722;42.620;23.374;2022-08-21T21:40:43;10.90;;;8.40;;
11334;SDS011;5722;42.620;23.374;2022-08-21T21:43:16;11.20;;;8.15;;
11334;SDS011;5722;42.620;23.374;2022-08-21T21:45:59;9.85;;;7.95;;
11334;SDS011;5722;42.620;23.374;2022-08-21T21:48:36;9.00;;;8.10;;
11334;SDS011;5722;42.620;23.374;2022-08-21T21:51:11;8.85;;;7.88;;
11334;SDS011;5722;42.620;23.374;2022-08-21T21:53:46;11.10;;;8.02;;
11334;SDS011;5722;42.620;23.374;2022-08-21T21:56:21;11.07;;;8.13;;
11334;SDS011;5722;42.620;23.374;2022-08-21T21:59:02;8.30;;;7.50;;
11334;SDS011;5722;42.620;23.374;2022-08-21T22:01:36;7.47;;;6.85;;
11334;SDS011;5722;42.620;23.374;2022-08-21T22:04:10;7.93;;;7.10;;
11334;SDS011;5722;42.620;23.374;2022-08-21T22:06:41;12.05;;;6.95;;
11334;SDS011;5722;42.620;23.374;2022-08-21T22:09:16;8.90;;;6.90;;
11334;SDS011;5722;42.620;23.374;2022-08-21T22:11:58;7.85;;;6.65;;
11334;SDS011;5722;42.620;23.374;2022-08-21T22:14:39;7.72;;;6.78;;
11334;SDS011;5722;42.620;23.374;2022-08-21T22:20:07;6.90;;;5.88;;
11334;SDS011;5722;42.620;23.374;2022-08-21T22:22:37;7.95;;;6.03;;
11334;SDS011;5722;42.620;23.374;2022-08-21T22:25:15;7.60;;;6.03;;
11334;SDS011;5722;42.620;23.374;2022-08-21T22:27:48;7.32;;;6.47;;
11334;SDS011;5722;42.620;23.374;2022-08-21T22:33:01;6.82;;;6.03;;
11334;SDS011;5722;42.620;23.374;2022-08-21T22:35:38;9.38;;;6.35;;
11334;SDS011;5722;42.620;23.374;2022-08-21T22:38:16;6.88;;;6.20;;
11334;SDS011;5722;42.620;23.374;2022-08-21T22:40:44;6.93;;;6.22;;
11334;SDS011;5722;42.620;23.374;2022-08-21T22:43:14;8.23;;;6.40;;
11334;SDS011;5722;42.620;23.374;2022-08-21T22:45:58;7.90;;;6.38;;
11334;SDS011;5722;42.620;23.374;2022-08-21T22:48:29;11.52;;;7.35;;
11334;SDS011;5722;42.620;23.374;2022-08-21T22:51:11;7.13;;;6.50;;
11334;SDS011;5722;42.620;23.374;2022-08-21T22:53:51;8.27;;;5.88;;
11334;SDS011;5722;42.620;23.374;2022-08-21T22:56:25;9.82;;;6.88;;
11334;SDS011;5722;42.620;23.374;2022-08-21T22:58:57;6.53;;;5.93;;
11334;SDS011;5722;42.620;23.374;2022-08-21T23:01:33;9.77;;;6.25;;
11334;SDS011;5722;42.620;23.374;2022-08-21T23:06:56;8.27;;;6.68;;
11334;SDS011;5722;42.620;23.374;2022-08-21T23:09:45;11.10;;;6.93;;
11334;SDS011;5722;42.620;23.374;2022-08-21T23:12:23;8.10;;;6.38;;
11334;SDS011;5722;42.620;23.374;2022-08-21T23:14:55;10.40;;;6.53;;
11334;SDS011;5722;42.620;23.374;2022-08-21T23:17:27;8.02;;;6.50;;
11334;SDS011;5722;42.620;23.374;2022-08-21T23:20:04;7.00;;;6.30;;
11334;SDS011;5722;42.620;23.374;2022-08-21T23:22:53;8.88;;;7.10;;
11334;SDS011;5722;42.620;23.374;2022-08-21T23:25:31;9.18;;;6.75;;
11334;SDS011;5722;42.620;23.374;2022-08-21T23:28:05;8.80;;;6.68;;
11334;SDS011;5722;42.620;23.374;2022-08-21T23:30:39;9.73;;;6.72;;
11334;SDS011;5722;42.620;23.374;2022-08-21T23:33:16;8.15;;;6.80;;
11334;SDS011;5722;42.620;23.374;2022-08-21T23:35:50;8.18;;;6.88;;
11334;SDS011;5722;42.620;23.374;2022-08-21T23:38:42;7.00;;;6.30;;
11334;SDS011;5722;42.620;23.374;2022-08-21T23:41:14;9.02;;;7.03;;
11334;SDS011;5722;42.620;23.374;2022-08-21T23:43:47;8.95;;;7.63;;
11334;SDS011;5722;42.620;23.374;2022-08-21T23:46:40;9.00;;;7.07;;
11334;SDS011;5722;42.620;23.374;2022-08-21T23:49:18;7.82;;;6.82;;
11334;SDS011;5722;42.620;23.374;2022-08-21T23:51:52;9.93;;;7.05;;
11334;SDS011;5722;42.620;23.374;2022-08-21T23:54:30;9.88;;;6.55;;
11334;SDS011;5722;42.620;23.374;2022-08-21T23:57:02;8.20;;;6.82;;
11334;SDS011;5722;42.620;23.374;2022-08-21T23:59:36;9.85;;;7.72;;
